Time;durP1;ratioP1;P1;durP2;ratioP2;P2;SDS_P1;SDS_P2;PMS_P1;PMS_P2;Temp;Humidity;BMP_temperature;BMP_pressure;BME280_temperature;BME280_humidity;BME280_pressure;Samples;Min_cycle;Max_cycle;Signal;HPM_P1;HPM_P2
2022/05/02 00:00:09;;;;;;;17.30;12.00;;;;;;;6.61;59.76;100857.44;3471655;80;21073;-74
2022/05/02 00:05:00;;;;;;;18.63;12.37;;;;;;;6.54;60.00;100854.17;3428611;80;21505;-74
2022/05/02 00:09:52;;;;;;;21.52;10.72;;;;;;;6.42;59.83;100856.80;3433066;80;20963;-74
2022/05/02 00:14:43;;;;;;;17.75;10.85;;;;;;;6.36;60.29;100852.69;3416929;81;20952;-74
2022/05/02 00:19:34;;;;;;;15.85;11.50;;;;;;;6.30;60.53;100847.31;3434321;79;20943;-74
2022/05/02 00:24:25;;;;;;;14.45;10.95;;;;;;;6.19;60.34;100857.64;3436352;80;21148;-74
2022/05/02 00:29:17;;;;;;;15.98;12.33;;;;;;;6.14;60.98;100859.20;3509917;80;21475;-74
2022/05/02 00:34:08;;;;;;;19.73;11.97;;;;;;;6.09;60.95;100857.72;3463761;79;20968;-74
2022/05/02 00:38:59;;;;;;;17.52;12.58;;;;;;;6.05;60.98;100858.02;3481321;80;20998;-74
2022/05/02 00:43:50;;;;;;;17.73;13.62;;;;;;;6.02;60.89;100864.34;3452898;81;20926;-74
2022/05/02 00:48:41;;;;;;;15.83;11.80;;;;;;;5.97;61.05;100865.87;3470480;79;21497;-74
2022/05/02 00:53:32;;;;;;;13.22;10.50;;;;;;;5.97;61.40;100874.91;3482306;81;21049;-74
2022/05/02 00:58:23;;;;;;;14.25;11.65;;;;;;;5.90;61.43;100872.88;3462884;81;20990;-74
2022/05/02 01:03:15;;;;;;;14.78;9.88;;;;;;;5.88;61.25;100866.78;3452074;80;20952;-74
2022/05/02 01:08:06;;;;;;;15.45;11.80;;;;;;;5.75;61.09;100874.88;3417860;80;20979;-74
2022/05/02 01:12:57;;;;;;;15.43;11.33;;;;;;;5.69;61.36;100864.79;3447620;80;21041;-74
2022/05/02 01:17:48;;;;;;;16.85;10.55;;;;;;;5.65;61.38;100869.37;3454808;80;20879;-74
2022/05/02 01:22:39;;;;;;;16.60;11.90;;;;;;;5.57;61.63;100866.89;3478833;80;21260;-74
2022/05/02 01:27:30;;;;;;;19.95;12.33;;;;;;;5.53;61.75;100863.72;3484077;80;20934;-74
2022/05/02 01:32:21;;;;;;;18.07;12.33;;;;;;;5.55;62.03;100865.95;3489426;81;21034;-74
2022/05/02 01:37:14;;;;;;;14.98;12.53;;;;;;;5.59;61.97;100854.92;3446196;80;20988;-74
2022/05/02 01:42:08;;;;;;;16.17;12.60;;;;;;;5.60;62.11;100858.38;3419314;80;20958;-74
2022/05/02 01:47:00;;;;;;;16.70;12.23;;;;;;;5.59;62.26;100856.22;3472014;80;20970;-74
2022/05/02 01:51:51;;;;;;;14.78;11.12;;;;;;;5.53;62.37;100852.12;3465993;80;21027;-74
2022/05/02 01:56:43;;;;;;;15.08;11.45;;;;;;;5.43;62.49;100854.72;3429484;80;20939;-74
2022/05/02 02:01:35;;;;;;;14.50;11.57;;;;;;;5.37;62.49;100858.78;3430134;81;22555;-74
2022/05/02 02:06:27;;;;;;;16.62;11.50;;;;;;;5.31;62.84;100856.80;3453107;80;20944;-74
2022/05/02 02:11:18;;;;;;;15.43;11.15;;;;;;;5.28;62.84;100859.28;3431752;80;20920;-74
2022/05/02 02:16:13;;;;;;;17.50;13.38;;;;;;;5.21;63.15;100854.27;3420897;80;21476;-74
2022/05/02 02:21:08;;;;;;;19.27;13.22;;;;;;;5.20;63.36;100858.95;3431960;80;20972;-74
2022/05/02 02:26:00;;;;;;;18.77;13.18;;;;;;;5.22;63.35;100846.99;3451108;81;21454;-74
2022/05/02 02:30:51;;;;;;;17.37;12.47;;;;;;;5.23;63.42;100850.48;3459629;81;21458;-74
2022/05/02 02:35:42;;;;;;;16.62;11.80;;;;;;;5.19;63.48;100851.14;3432973;80;21422;-74
2022/05/02 02:40:33;;;;;;;18.05;11.70;;;;;;;5.12;63.44;100850.04;3454149;80;21020;-74
2022/05/02 02:45:24;;;;;;;16.02;11.18;;;;;;;5.07;63.48;100852.83;3459459;81;21462;-74
2022/05/02 02:50:15;;;;;;;12.03;9.48;;;;;;;4.99;63.56;100854.20;3438316;81;20948;-74
2022/05/02 02:55:07;;;;;;;13.03;10.32;;;;;;;4.90;63.73;100860.74;3448969;80;21011;-74
2022/05/02 02:59:58;;;;;;;16.35;12.40;;;;;;;4.82;63.96;100862.52;3391322;81;20963;-74
2022/05/02 03:09:59;;;;;;;15.48;11.78;;;;;;;4.85;64.34;100866.10;3414120;80;21433;-74
2022/05/02 03:14:50;;;;;;;19.27;12.98;;;;;;;4.95;64.53;100872.13;3411531;81;21862;-74
2022/05/02 03:19:41;;;;;;;13.30;11.60;;;;;;;4.97;64.39;100878.61;3387145;81;20976;-74
2022/05/02 03:24:32;;;;;;;14.25;11.25;;;;;;;4.95;64.43;100878.56;3408221;80;21138;-74
2022/05/02 03:29:24;;;;;;;15.70;11.28;;;;;;;4.92;64.54;100876.27;3398477;80;21402;-74
2022/05/02 03:34:15;;;;;;;11.88;9.90;;;;;;;4.91;64.63;100871.92;3449990;80;21492;-74
2022/05/02 03:39:06;;;;;;;13.88;9.55;;;;;;;4.87;64.55;100865.76;3420748;81;21891;-74
2022/05/02 03:43:58;;;;;;;17.75;11.88;;;;;;;4.81;64.74;100871.95;3390071;81;20994;-74
2022/05/02 03:48:49;;;;;;;16.37;11.00;;;;;;;4.77;64.94;100876.48;3407872;80;20982;-74
2022/05/02 03:53:40;;;;;;;21.45;11.83;;;;;;;4.80;65.01;100876.62;3435712;80;20927;-74
2022/05/02 03:58:32;;;;;;;18.35;12.95;;;;;;;4.89;65.18;100874.84;3455710;80;21121;-74
2022/05/02 04:03:23;;;;;;;17.60;12.15;;;;;;;4.93;65.25;100875.02;3439841;79;21167;-74
2022/05/02 04:08:14;;;;;;;17.85;12.28;;;;;;;4.96;65.30;100871.30;3477823;80;21008;-74
2022/05/02 04:13:05;;;;;;;20.43;12.18;;;;;;;5.04;65.25;100879.75;3533140;79;20979;-74
2022/05/02 04:17:58;;;;;;;12.50;10.28;;;;;;;5.14;65.13;100874.17;3510863;79;21545;-74
2022/05/02 04:22:49;;;;;;;14.50;11.12;;;;;;;5.27;65.05;100872.56;3447501;80;20970;-74
2022/05/02 04:27:40;;;;;;;20.00;12.88;;;;;;;5.43;65.07;100874.48;3540804;79;20908;-74
2022/05/02 04:32:31;;;;;;;18.95;12.73;;;;;;;5.61;65.05;100875.20;3508988;80;21643;-74
2022/05/02 04:37:22;;;;;;;17.40;13.72;;;;;;;5.80;64.97;100875.95;3502791;79;20966;-74
2022/05/02 04:42:13;;;;;;;17.45;13.70;;;;;;;5.98;65.15;100870.22;3516559;80;20875;-74
2022/05/02 04:47:05;;;;;;;20.72;14.15;;;;;;;6.19;65.17;100876.61;3516190;79;21541;-75
2022/05/02 04:51:56;;;;;;;18.45;13.88;;;;;;;6.36;65.45;100866.89;3500485;79;21491;-74
2022/05/02 04:56:47;;;;;;;15.28;12.65;;;;;;;6.61;65.66;100872.95;3492117;79;20952;-75
2022/05/02 05:01:38;;;;;;;16.73;13.30;;;;;;;6.84;65.83;100872.46;3482121;80;21549;-74
2022/05/02 05:06:29;;;;;;;18.82;13.95;;;;;;;7.11;66.00;100876.39;3514663;79;20979;-74
2022/05/02 05:12:04;;;;;;;19.00;13.75;;;;;;;7.42;66.01;100874.81;3515904;79;21473;-75
2022/05/02 05:17:03;;;;;;;16.00;13.32;;;;;;;7.72;65.99;100875.33;3543620;79;22071;-74
2022/05/02 05:22:15;;;;;;;23.67;16.37;;;;;;;7.95;65.80;100866.55;3540192;79;21171;-74
2022/05/02 05:27:53;;;;;;;67.70;38.40;;;;;;;8.15;65.58;100868.84;3504899;79;20916;-74
2022/05/02 05:33:25;;;;;;;54.30;32.17;;;;;;;8.31;65.36;100861.11;3531790;80;21251;-74
2022/05/02 05:39:05;;;;;;;28.87;18.95;;;;;;;8.56;65.34;100863.57;3536528;79;20915;-74
2022/05/02 05:44:16;;;;;;;15.15;12.45;;;;;;;8.84;65.18;100863.03;3560141;79;21153;-74
2022/05/02 05:49:43;;;;;;;15.65;13.00;;;;;;;9.15;64.34;100854.30;3520237;79;20923;-74
2022/05/02 05:54:55;;;;;;;16.00;11.15;;;;;;;9.40;64.24;100851.02;3380545;83;21011;-74
2022/05/02 06:00:09;;;;;;;10.78;8.45;;;;;;;9.68;63.89;100852.98;3364213;83;20926;-74
2022/05/02 06:05:02;;;;;;;9.30;8.05;;;;;;;10.45;62.11;100845.53;3358779;83;21632;-74
2022/05/02 06:09:57;;;;;;;7.35;6.65;;;;;;;13.11;58.90;100843.19;3362458;83;21481;-75
2022/05/02 06:20:02;;;;;;;8.65;7.08;;;;;;;16.89;53.12;100831.39;3348399;83;21445;-75
2022/05/02 06:24:55;;;;;;;7.45;6.70;;;;;;;19.81;49.46;100822.75;3346774;83;21460;-76
2022/05/02 06:29:47;;;;;;;7.00;6.40;;;;;;;21.28;46.70;100825.20;3484087;78;21342;-76
2022/05/02 06:34:40;;;;;;;9.55;7.00;;;;;;;22.74;44.13;100818.86;3512265;78;21473;-76
2022/05/02 06:39:59;;;;;;;9.00;6.45;;;;;;;21.70;43.62;100821.02;3537981;78;20971;-76
2022/05/02 06:45:10;;;;;;;8.63;6.15;;;;;;;22.13;42.28;100822.05;3525158;79;20979;-76
2022/05/02 06:50:06;;;;;;;6.87;6.17;;;;;;;22.34;41.71;100820.11;3584444;78;20924;-76
2022/05/02 06:55:15;;;;;;;6.53;5.90;;;;;;;22.77;40.08;100820.09;3520228;78;21409;-74
2022/05/02 07:00:15;;;;;;;7.30;6.60;;;;;;;23.62;39.23;100817.73;3563853;78;21474;-75
2022/05/02 07:05:39;;;;;;;6.12;5.50;;;;;;;26.07;37.25;100812.72;3527464;79;21627;-75
2022/05/02 07:10:35;;;;;;;6.80;4.87;;;;;;;27.41;35.47;100813.37;3529401;79;21441;-75
2022/05/02 07:15:39;;;;;;;;;;;;;;;26.23;34.86;100812.39;3474074;79;21514;-75
2022/05/02 07:20:52;;;;;;;5.08;4.47;;;;;;;26.52;33.14;100805.28;3531921;79;20745;-75
2022/05/02 07:25:48;;;;;;;5.10;4.55;;;;;;;27.81;32.41;100804.09;3510209;79;21156;-76
2022/05/02 07:30:41;;;;;;;8.53;5.85;;;;;;;29.39;31.54;100806.83;3539900;79;21101;-75
2022/05/02 07:35:34;;;;;;;5.10;4.70;;;;;;;32.01;29.13;100801.73;3494853;79;21390;-75
2022/05/02 07:40:27;;;;;;;5.42;4.62;;;;;;;33.91;27.15;100804.50;3481255;78;20998;-75
2022/05/02 07:45:27;;;;;;;6.65;5.83;;;;;;;33.77;26.01;100799.73;3506365;80;20944;-74
2022/05/02 07:50:21;;;;;;;6.30;4.92;;;;;;;32.29;26.67;100800.13;3564899;79;21380;-74
2022/05/02 07:55:14;;;;;;;5.15;4.65;;;;;;;32.96;25.20;100795.23;3454820;79;20899;-75
2022/05/02 08:00:10;;;;;;;4.42;4.08;;;;;;;33.20;24.96;100795.23;3536260;79;21016;-75
2022/05/02 08:05:05;;;;;;;4.80;4.40;;;;;;;33.18;24.16;100789.95;3468346;79;20996;-75
2022/05/02 08:10:25;;;;;;;5.95;4.47;;;;;;;32.65;24.60;100793.52;3438069;80;21453;-75
2022/05/02 08:15:31;;;;;;;5.85;4.67;;;;;;;32.93;23.61;100789.61;3494413;79;22103;-75
2022/05/02 08:21:09;;;;;;;5.28;4.78;;;;;;;31.26;23.74;100795.27;3472639;80;20955;-75
2022/05/02 08:31:56;;;;;;;7.65;5.30;;;;;;;28.99;25.32;100795.78;3471850;80;20971;-75
2022/05/02 08:37:25;;;;;;;5.87;4.55;;;;;;;30.82;23.25;100788.86;3450756;80;21206;-74
2022/05/02 08:42:41;;;;;;;4.90;4.33;;;;;;;30.45;24.00;100783.27;3470629;80;21258;-75
2022/05/02 08:48:00;;;;;;;4.62;4.10;;;;;;;29.75;25.11;100768.90;3468997;80;33624;-75
2022/05/02 08:53:26;;;;;;;4.65;3.83;;;;;;;30.53;23.45;100767.06;3480255;80;21609;-75
2022/05/02 08:58:42;;;;;;;5.90;3.83;;;;;;;29.20;23.69;100762.89;3475078;81;21462;-74
2022/05/02 09:04:14;;;;;;;5.42;3.98;;;;;;;29.82;23.63;100764.88;3447350;81;20885;-74
2022/05/02 09:09:25;;;;;;;5.90;4.42;;;;;;;30.47;23.00;100755.37;3471805;80;22049;-74
2022/05/02 09:14:49;;;;;;;4.85;4.45;;;;;;;29.15;23.81;100756.47;3442720;80;20964;-74
2022/05/02 09:20:19;;;;;;;5.67;4.47;;;;;;;28.39;24.46;100751.95;3441811;80;20933;-74
2022/05/02 09:25:12;;;;;;;5.70;5.10;;;;;;;28.64;24.48;100751.91;3461533;80;21003;-74
2022/05/02 09:30:18;;;;;;;5.33;4.83;;;;;;;28.26;25.11;100738.42;3442264;81;20961;-74
2022/05/02 09:35:12;;;;;;;;;;;;;;;29.14;23.23;100738.67;3433737;80;21755;-74
2022/05/02 09:40:15;;;;;;;6.00;4.58;;;;;;;29.85;23.52;100731.65;3467711;80;20126;-74
2022/05/02 09:51:38;;;;;;;5.17;4.72;;;;;;;31.47;22.43;100731.14;3466474;80;21034;-75
2022/05/02 09:56:40;;;;;;;5.70;4.45;;;;;;;33.09;21.44;100709.84;3458810;80;20994;-75
2022/05/02 10:01:33;;;;;;;5.30;4.25;;;;;;;34.56;19.77;100714.61;3468737;80;21201;-74
2022/05/02 10:06:48;;;;;;;3.92;3.58;;;;;;;35.47;19.11;100701.44;3435668;81;21003;-75
2022/05/02 10:11:59;;;;;;;6.17;5.00;;;;;;;35.36;18.97;100711.47;3339027;85;20950;-74
2022/05/02 10:17:13;;;;;;;5.72;4.17;;;;;;;32.22;20.32;100702.03;3276036;86;21360;-74
2022/05/02 10:22:16;;;;;;;5.12;4.10;;;;;;;33.91;19.61;100697.98;3352618;82;21016;-74
2022/05/02 10:27:24;;;;;;;5.40;4.58;;;;;;;34.80;18.87;100678.93;3407522;82;21737;-74
2022/05/02 10:32:38;;;;;;;5.22;3.42;;;;;;;35.39;18.42;100672.02;3343363;82;21441;-74
2022/05/02 10:37:36;;;;;;;4.40;4.10;;;;;;;35.73;18.57;100669.88;3368316;82;21039;-74
2022/05/02 10:42:31;;;;;;;5.20;4.50;;;;;;;32.69;19.34;100669.84;3367575;82;21236;-74
2022/05/02 10:47:27;;;;;;;5.80;4.95;;;;;;;33.60;19.40;100651.94;3382421;81;20975;-74
2022/05/02 10:52:54;;;;;;;5.72;4.58;;;;;;;34.14;19.33;100644.83;3489224;81;21092;-74
2022/05/02 10:57:51;;;;;;;5.40;4.15;;;;;;;33.75;18.54;100661.52;3491870;80;20967;-74
2022/05/02 11:03:09;;;;;;;4.97;4.45;;;;;;;33.11;18.44;100634.28;3402318;80;20973;-74
2022/05/02 11:08:14;;;;;;;9.43;4.83;;;;;;;32.45;19.44;100642.95;3476928;79;20943;-74
2022/05/02 11:13:40;;;;;;;7.15;3.80;;;;;;;29.36;20.90;100646.34;3431344;79;20901;-74
2022/05/02 11:24:33;;;;;;;4.45;3.92;;;;;;;27.13;23.28;100645.30;3538585;79;21421;-74
2022/05/02 11:29:33;;;;;;;4.85;3.47;;;;;;;29.01;22.70;100629.28;3513237;80;20967;-74
2022/05/02 11:34:58;;;;;;;4.55;3.98;;;;;;;29.77;22.21;100621.44;3508467;79;20901;-74
2022/05/02 11:40:07;;;;;;;3.75;3.45;;;;;;;29.54;21.68;100607.67;3517992;80;21630;-74
2022/05/02 11:45:14;;;;;;;4.83;3.92;;;;;;;28.13;22.54;100615.31;3421453;80;21630;-73
2022/05/02 11:50:09;;;;;;;3.92;3.62;;;;;;;26.67;23.12;100612.59;3451129;81;20979;-73
2022/05/02 11:55:02;;;;;;;4.42;3.87;;;;;;;26.06;24.21;100619.20;3462725;80;20976;-73
2022/05/02 12:00:15;;;;;;;5.58;3.98;;;;;;;25.20;24.25;100618.73;3444894;80;20975;-73
2022/05/02 12:05:34;;;;;;;5.87;3.90;;;;;;;25.25;23.94;100602.13;3397857;81;21447;-73
2022/05/02 12:10:39;;;;;;;4.80;4.00;;;;;;;25.64;24.65;100593.66;3453888;81;21509;-73
2022/05/02 12:15:31;;;;;;;4.80;3.90;;;;;;;26.43;23.66;100564.02;3399845;81;20929;-73
2022/05/02 12:20:29;;;;;;;5.25;3.52;;;;;;;25.79;24.36;100596.94;3397335;81;21210;-73
2022/05/02 12:25:23;;;;;;;7.58;4.92;;;;;;;25.66;25.12;100581.98;3387705;82;20964;-73
2022/05/02 12:30:16;;;;;;;4.20;3.80;;;;;;;25.98;24.44;100569.42;3430375;81;21435;-73
2022/05/02 12:35:10;;;;;;;3.85;3.55;;;;;;;25.38;24.16;100561.17;3471560;80;21138;-73
2022/05/02 12:40:19;;;;;;;4.75;2.90;;;;;;;24.68;25.40;100565.21;3433074;81;20973;-73
2022/05/02 12:45:15;;;;;;;4.28;3.87;;;;;;;25.10;25.87;100561.09;3418662;81;20964;-73
2022/05/02 12:50:17;;;;;;;7.33;3.80;;;;;;;25.71;25.99;100552.97;3403160;81;20956;-73
2022/05/02 12:55:09;;;;;;;5.58;3.77;;;;;;;25.91;25.46;100557.31;3446644;81;20933;-73
2022/05/02 13:05:22;;;;;;;3.70;3.40;;;;;;;25.66;25.83;100557.17;3452587;80;21011;-73
2022/05/02 13:10:23;;;;;;;4.28;3.87;;;;;;;25.83;26.10;100534.59;3548967;78;21197;-73
2022/05/02 13:15:14;;;;;;;3.92;3.62;;;;;;;25.97;25.79;100535.27;3432355;79;20931;-73
2022/05/02 13:20:12;;;;;;;4.70;3.58;;;;;;;25.48;25.82;100539.82;3488928;79;21454;-73
2022/05/02 13:25:04;;;;;;;4.60;3.65;;;;;;;25.71;26.05;100525.88;3459767;80;21147;-73
2022/05/02 13:30:09;;;;;;;3.65;3.35;;;;;;;25.80;24.87;100521.41;3454473;79;20939;-73
2022/05/02 13:35:19;;;;;;;5.58;4.12;;;;;;;24.85;25.21;100523.27;3490949;80;21006;-73
2022/05/02 13:40:14;;;;;;;4.97;3.75;;;;;;;24.31;26.29;100519.83;3519582;79;21070;-72
2022/05/02 13:45:17;;;;;;;6.12;3.92;;;;;;;24.52;27.02;100515.82;3490843;79;21490;-73
2022/05/02 13:50:12;;;;;;;6.47;4.75;;;;;;;24.04;26.20;100506.39;3485260;79;21905;-73
2022/05/02 13:55:09;;;;;;;5.08;3.95;;;;;;;23.58;26.23;100502.03;3467303;79;21011;-73
2022/05/02 14:05:34;;;;;;;5.17;4.03;;;;;;;24.31;27.56;100482.64;3466466;80;20994;-73
2022/05/02 14:10:26;;;;;;;3.75;3.37;;;;;;;23.98;27.11;100480.52;3474866;79;21005;-73
2022/05/02 14:15:19;;;;;;;5.95;3.62;;;;;;;23.22;27.73;100485.34;3485143;79;21214;-73
2022/05/02 14:20:24;;;;;;;6.45;3.85;;;;;;;23.19;27.82;100490.75;3498515;79;20963;-74
2022/05/02 14:25:36;;;;;;;3.90;3.08;;;;;;;23.73;27.12;100477.13;3473726;79;21413;-74
2022/05/02 14:30:28;;;;;;;5.42;3.12;;;;;;;23.71;26.39;100471.02;3469091;79;20955;-74
2022/05/02 14:35:35;;;;;;;4.53;3.62;;;;;;;23.31;27.05;100472.66;3458685;79;21343;-74
2022/05/02 14:40:24;;;;;;;6.83;5.15;;;;;;;23.04;27.90;100464.83;3469688;79;21706;-74
2022/05/02 14:45:18;;;;;;;4.55;3.83;;;;;;;23.65;27.67;100465.98;3479082;81;20927;-74
2022/05/02 14:50:09;;;;;;;3.65;3.35;;;;;;;23.76;28.65;100447.80;3455191;79;21428;-74
2022/05/02 14:55:04;;;;;;;4.40;3.67;;;;;;;24.10;28.04;100454.36;3499298;79;21559;-74
2022/05/02 15:00:06;;;;;;;5.17;3.47;;;;;;;23.98;27.73;100444.68;3428801;79;20982;-74
2022/05/02 15:05:03;;;;;;;3.98;3.58;;;;;;;24.03;27.09;100442.28;3455247;79;20928;-74
2022/05/02 15:10:12;;;;;;;;;;;;;;;24.01;26.93;100430.87;3458072;79;21411;-74
2022/05/02 15:15:23;;;;;;;5.53;3.15;;;;;;;23.94;27.47;100427.13;3443231;79;20164;-74
2022/05/02 15:20:26;;;;;;;4.70;3.33;;;;;;;23.67;27.15;100427.82;3469809;79;20988;-74
2022/05/02 15:25:21;;;;;;;5.17;4.20;;;;;;;23.62;27.84;100426.29;3485743;79;20958;-74
2022/05/02 15:40:49;;;;;;;3.40;2.90;;;;;;;22.95;27.56;100415.67;3422579;79;20997;-74
2022/05/02 15:45:40;;;;;;;3.92;3.05;;;;;;;22.74;27.56;100412.06;3488540;79;21047;-74
2022/05/02 15:50:31;;;;;;;6.45;3.62;;;;;;;22.24;28.53;100417.43;3480718;79;20963;-73
2022/05/02 15:55:54;;;;;;;5.08;3.60;;;;;;;21.67;29.06;100413.66;3498439;79;20943;-74
2022/05/02 16:01:08;;;;;;;4.35;3.87;;;;;;;21.68;29.54;100407.45;3481336;79;21517;-73
2022/05/02 16:06:06;;;;;;;7.62;4.22;;;;;;;21.30;29.13;100403.39;3502881;79;20966;-73
2022/05/02 16:11:06;;;;;;;3.75;3.37;;;;;;;21.04;30.63;100401.60;3432572;81;20968;-74
2022/05/02 16:15:59;;;;;;;5.35;3.52;;;;;;;20.81;30.05;100407.13;3427518;80;21000;-73
2022/05/02 16:20:50;;;;;;;7.37;3.27;;;;;;;20.67;30.61;100406.22;3476029;80;21477;-74
2022/05/02 16:25:51;;;;;;;4.00;3.30;;;;;;;20.83;30.25;100403.98;3450786;79;21317;-74
2022/05/02 16:30:38;;;;;;;4.05;3.37;;;;;;;20.98;30.17;100392.53;3405645;79;21879;-74
2022/05/02 16:35:31;;;;;;;4.40;3.58;;;;;;;21.11;30.48;100396.53;3470800;79;21031;-74
2022/05/02 16:40:28;;;;;;;3.95;3.58;;;;;;;21.13;30.18;100392.05;3491170;79;21529;-74
2022/05/02 16:45:22;;;;;;;5.47;3.30;;;;;;;21.14;31.21;100390.69;3437452;79;21335;-74
2022/05/02 16:50:14;;;;;;;3.50;3.20;;;;;;;20.98;30.84;100390.77;3409326;79;21493;-74
2022/05/02 16:55:06;;;;;;;5.30;3.65;;;;;;;21.09;32.01;100386.47;3444741;79;21493;-74
2022/05/02 16:59:57;;;;;;;4.10;3.70;;;;;;;21.09;31.64;100395.72;3447294;80;20988;-74
2022/05/02 17:04:49;;;;;;;5.15;4.40;;;;;;;20.95;32.06;100404.08;3440908;80;20960;-74
2022/05/02 17:09:41;;;;;;;5.92;4.08;;;;;;;20.68;31.78;100401.82;3438787;80;21121;-74
2022/05/02 17:14:33;;;;;;;12.20;5.20;;;;;;;20.37;32.49;100398.70;3445306;79;20928;-74
2022/05/02 17:19:27;;;;;;;4.25;3.85;;;;;;;20.07;34.33;100398.67;3536586;79;21071;-73
2022/05/02 17:24:22;;;;;;;4.97;4.03;;;;;;;19.70;34.96;100391.69;3471036;79;21410;-74
2022/05/02 17:29:19;;;;;;;6.90;4.08;;;;;;;19.34;35.22;100388.22;3447553;79;21015;-73
2022/05/02 17:34:13;;;;;;;4.65;3.70;;;;;;;18.98;35.74;100392.15;3451972;79;22023;-73
2022/05/02 17:39:05;;;;;;;6.55;5.40;;;;;;;18.62;35.98;100395.52;3417845;79;21138;-73
2022/05/02 17:43:58;;;;;;;4.65;4.05;;;;;;;18.29;36.35;100401.88;3422293;79;20944;-73
2022/05/02 17:48:55;;;;;;;4.85;4.45;;;;;;;17.96;37.00;100397.30;3467351;79;21003;-73
2022/05/02 17:53:49;;;;;;;4.37;3.98;;;;;;;17.61;39.31;100401.38;3483046;79;21022;-73
2022/05/02 17:58:42;;;;;;;51.50;8.93;;;;;;;17.23;38.77;100409.44;3435711;80;21475;-73
2022/05/02 18:03:40;;;;;;;12.43;6.08;;;;;;;16.94;39.77;100409.42;3449750;81;20959;-73
2022/05/02 18:08:41;;;;;;;9.13;5.60;;;;;;;16.62;39.32;100405.44;3463204;81;21042;-73
2022/05/02 18:13:44;;;;;;;8.80;5.72;;;;;;;16.38;40.02;100414.05;3487127;79;21489;-73
2022/05/02 18:18:53;;;;;;;5.47;5.00;;;;;;;16.15;40.32;100422.59;3484401;79;20978;-73
2022/05/02 18:23:54;;;;;;;5.45;4.95;;;;;;;15.90;40.99;100420.23;3457860;80;21445;-73
2022/05/02 18:28:49;;;;;;;9.33;5.25;;;;;;;15.69;41.48;100421.27;3517858;79;21002;-73
2022/05/02 18:33:55;;;;;;;5.37;4.87;;;;;;;15.42;41.60;100421.92;3452390;79;21475;-73
2022/05/02 18:38:58;;;;;;;5.60;5.08;;;;;;;15.17;41.60;100423.84;3423847;82;22203;-73
2022/05/02 18:44:11;;;;;;;5.33;4.58;;;;;;;14.98;42.30;100427.45;3535981;77;20947;-73
2022/05/02 18:54:16;;;;;;;6.50;5.90;;;;;;;14.59;43.13;100435.92;3490688;79;21005;-73
2022/05/02 18:59:12;;;;;;;6.67;5.62;;;;;;;14.35;44.02;100439.03;3434255;79;21033;-72
2022/05/02 19:04:05;;;;;;;7.92;6.10;;;;;;;14.17;44.16;100434.72;3478588;79;20942;-73
2022/05/02 19:08:58;;;;;;;7.35;5.58;;;;;;;13.98;44.29;100442.16;3461891;80;20982;-72
2022/05/02 19:13:51;;;;;;;6.90;5.12;;;;;;;13.79;45.00;100438.68;3569800;79;21154;-73
2022/05/02 19:18:42;;;;;;;8.83;5.30;;;;;;;13.62;45.52;100436.95;3427330;80;21225;-73
2022/05/02 19:23:53;;;;;;;6.87;5.42;;;;;;;13.47;45.99;100442.19;3446019;80;20962;-72
2022/05/02 19:28:49;;;;;;;7.78;5.37;;;;;;;13.34;46.38;100439.56;3484039;79;21556;-72
2022/05/02 19:33:43;;;;;;;5.90;5.30;;;;;;;13.21;46.73;100444.28;3529408;79;20919;-72
2022/05/02 19:39:06;;;;;;;10.00;6.97;;;;;;;13.11;47.35;100447.73;3496512;79;21482;-72
2022/05/02 19:43:59;;;;;;;20.00;8.47;;;;;;;13.03;47.61;100455.99;3457694;79;21485;-72
2022/05/02 19:48:51;;;;;;;22.90;8.90;;;;;;;12.93;47.87;100446.84;3486015;79;20931;-72
2022/05/02 19:53:43;;;;;;;10.93;7.90;;;;;;;12.82;48.16;100443.74;3443230;79;21161;-73
2022/05/02 19:58:39;;;;;;;15.88;8.70;;;;;;;12.74;48.44;100445.03;3444133;79;21484;-72
2022/05/02 20:03:31;;;;;;;10.08;8.75;;;;;;;12.58;48.97;100450.61;3455278;80;21298;-72
2022/05/02 20:08:23;;;;;;;16.77;8.98;;;;;;;12.48;49.28;100452.28;3484010;79;21010;-73
2022/05/02 20:13:14;;;;;;;12.03;9.00;;;;;;;12.38;49.47;100453.13;3486453;79;21511;-73
2022/05/02 20:18:06;;;;;;;11.28;9.03;;;;;;;12.26;50.00;100446.09;3428821;80;20924;-73
2022/05/02 20:22:58;;;;;;;12.63;10.08;;;;;;;12.14;50.26;100446.92;3405565;80;22298;-73
2022/05/02 20:27:49;;;;;;;11.50;10.20;;;;;;;12.04;50.52;100445.11;3411950;80;22147;-73
2022/05/02 20:37:50;;;;;;;21.40;14.30;;;;;;;11.88;51.12;100436.72;3449418;79;20987;-73
2022/05/02 20:42:45;;;;;;;16.45;13.60;;;;;;;11.76;51.39;100438.78;3432284;79;21809;-73
2022/05/02 20:47:48;;;;;;;16.35;12.85;;;;;;;11.64;51.82;100440.84;3470171;79;21493;-73
2022/05/02 20:52:43;;;;;;;21.25;13.48;;;;;;;11.50;52.48;100438.56;3455461;79;21727;-73
2022/05/02 20:57:35;;;;;;;21.65;14.03;;;;;;;11.38;52.73;100437.60;3427751;80;21510;-73
2022/05/02 21:02:26;;;;;;;17.82;13.75;;;;;;;11.28;53.34;100431.86;3500188;79;20958;-73
2022/05/02 21:07:18;;;;;;;19.23;14.40;;;;;;;11.16;53.78;100429.13;3515336;79;21033;-73
2022/05/02 21:12:49;;;;;;;21.77;16.65;;;;;;;11.05;53.70;100424.72;3394449;80;20916;-73
2022/05/02 21:18:05;;;;;;;24.40;17.20;;;;;;;10.93;54.06;100428.48;3463657;80;21158;-73
2022/05/02 21:23:16;;;;;;;24.67;16.70;;;;;;;10.77;54.29;100421.38;3475241;80;20991;-73
2022/05/02 21:28:37;;;;;;;25.37;16.30;;;;;;;10.65;54.99;100413.85;3419061;83;20967;-73
2022/05/02 21:33:36;;;;;;;24.65;17.52;;;;;;;10.56;55.09;100416.78;3442097;83;20987;-73
2022/05/02 21:38:30;;;;;;;20.23;16.15;;;;;;;10.47;55.63;100417.54;3463261;81;20973;-73
2022/05/02 21:43:22;;;;;;;22.13;15.45;;;;;;;10.39;55.81;100412.25;3426270;81;21238;-73
2022/05/02 21:48:13;;;;;;;25.60;16.05;;;;;;;10.26;55.96;100420.69;3473491;81;21644;-73
2022/05/02 21:53:05;;;;;;;22.80;16.40;;;;;;;10.19;56.48;100411.93;3479318;80;20966;-73
2022/05/02 21:57:56;;;;;;;22.77;16.35;;;;;;;10.09;56.51;100413.55;3427819;81;21563;-73
2022/05/02 22:02:47;;;;;;;23.25;17.35;;;;;;;9.82;56.88;100399.73;3475513;80;20990;-73
2022/05/02 22:07:38;;;;;;;24.10;18.20;;;;;;;9.82;56.88;100399.73;3423953;80;20981;-73
2022/05/02 22:12:30;;;;;;;24.65;17.80;;;;;;;9.74;57.14;100406.52;3437792;81;21023;-73
2022/05/02 22:17:21;;;;;;;22.15;17.70;;;;;;;9.59;57.25;100403.27;3473943;79;20935;-73
2022/05/02 22:22:12;;;;;;;22.02;16.55;;;;;;;9.47;57.51;100409.56;3474246;79;21461;-73
2022/05/02 22:27:04;;;;;;;23.35;18.02;;;;;;;9.38;57.84;100405.09;3484323;81;20975;-73
2022/05/02 22:31:57;;;;;;;22.02;17.40;;;;;;;9.32;58.03;100401.11;3490278;79;21065;-73
2022/05/02 22:36:48;;;;;;;23.30;17.55;;;;;;;9.27;58.23;100400.15;3458257;79;20904;-73
2022/05/02 22:41:39;;;;;;;24.32;18.25;;;;;;;9.15;58.27;100402.95;3506471;79;20963;-74
2022/05/02 22:46:30;;;;;;;29.75;21.77;;;;;;;9.11;58.38;100394.69;3504766;79;20911;-73
2022/05/02 22:51:21;;;;;;;31.05;23.32;;;;;;;9.12;58.54;100391.26;3448015;81;21015;-73
2022/05/02 22:56:15;;;;;;;25.15;20.15;;;;;;;9.08;58.31;100390.73;3465976;79;22420;-73
2022/05/02 23:01:07;;;;;;;24.60;16.90;;;;;;;9.02;58.35;100394.95;3512385;79;20908;-73
2022/05/02 23:06:04;;;;;;;16.93;14.45;;;;;;;8.89;58.28;100384.75;3485076;79;20962;-73
2022/05/02 23:10:58;;;;;;;21.93;15.90;;;;;;;8.57;58.44;100383.74;3508854;79;20978;-73
2022/05/02 23:15:51;;;;;;;20.40;15.93;;;;;;;8.57;58.44;100383.74;3442483;80;20971;-73
2022/05/02 23:20:43;;;;;;;16.73;14.00;;;;;;;8.42;58.54;100388.57;3432089;81;21300;-73
2022/05/02 23:25:36;;;;;;;16.62;13.53;;;;;;;8.29;58.95;100388.31;3442465;82;20908;-73
2022/05/02 23:30:32;;;;;;;18.37;13.88;;;;;;;8.29;58.95;100388.31;3434854;82;21244;-73
2022/05/02 23:35:26;;;;;;;14.18;12.60;;;;;;;8.16;59.06;100387.62;3418021;82;20979;-73
2022/05/02 23:40:21;;;;;;;14.63;13.13;;;;;;;7.98;59.05;100383.78;3427853;80;21410;-73
2022/05/02 23:45:50;;;;;;;18.67;14.23;;;;;;;7.77;59.06;100370.35;3452723;80;21403;-73
2022/05/02 23:51:00;;;;;;;16.17;14.03;;;;;;;7.77;59.06;100370.35;3454773;80;20947;-73
2022/05/02 23:56:05;;;;;;;18.02;15.25;;;;;;;7.67;59.73;100375.72;3463386;79;21422;-73
